Terminal Aerodrome Forecast
Issued by NWS Lake Charles, LA

Home | Current Version | Previous Version | Text Only | Print | Product List | Glossary On
Versions: 1 2 3 4 5 6 7 8 9 10 11 12 13 14
000
FTUS44 KLCH 191700
TAFBPT
TAF
KBPT 191730Z 1918/2018 04011KT 6SM -RA BR BKN005 OVC050
      TEMPO 1918/1921 4SM RA BR OVC005
     FM192100 03010KT 6SM -RA BR BKN005 OVC040
     FM200100 01010KT 4SM BR OVC004=

USA.gov is the U.S. government's official web portal to all federal, state and local government web resources and services.